メインページ
METAR-TAF:

METAR-TAF

空港 :

Upshur County Regional Airport

Buckhannon, ウェストバージニア州, アメリカ合衆国

緯度: 39-00N, 経度: 080-16W, 海抜: 498m

現時点の気象観測

当レポートは12分前の01:15(UTC)に作成
無風
気温 16°C
湿度 100%
気圧 1021 hPa
視程: 16.1km
高度4600ftの雲はほとんどない

METAR: KW22 240115Z AUTO 00000KT 10SM FEW046 16/16 A3014 RMK AO2

時間: 21:27 (01:27 UTC)


TAF: 見つかりません

4,000以上の空港の気象観測と天気予報(METAR報とTAF報)

利用可能な観測所は地図上に黄色い丸と赤い丸で示す。

丸の上にカーソルを重ねると観測所名を参照できる。

次にクリックすると気象観測と天気予報を参照できる。

マップの切り替え:黒色「×」印の緑ボタンをクリックして拡大、「-」印の緑ボタンをクリックして縮小、緑色の三角印をクリックして隣りの地図に切り替え


METAR-TAF: